createdAt,value
2023-11-19T00:02:26.602Z,2.50
2023-11-19T00:04:59.548Z,2.80
2023-11-19T00:07:35.521Z,2.63
2023-11-19T00:10:10.442Z,2.23
2023-11-19T00:12:45.964Z,1.93
2023-11-19T00:15:24.830Z,2.67
2023-11-19T00:18:01.825Z,2.37
2023-11-19T00:20:32.546Z,3.00
2023-11-19T00:23:09.488Z,2.77
2023-11-19T00:25:41.788Z,2.47
2023-11-19T00:28:14.780Z,2.00
2023-11-19T00:30:47.711Z,1.97
2023-11-19T00:33:20.677Z,2.60
2023-11-19T00:35:53.654Z,2.63
2023-11-19T00:38:26.691Z,2.00
2023-11-19T00:41:03.607Z,2.27
2023-11-19T00:43:36.339Z,2.63
2023-11-19T00:46:10.741Z,1.40
2023-11-19T00:48:44.903Z,1.37
2023-11-19T00:51:17.730Z,1.50
2023-11-19T00:53:50.667Z,1.63
2023-11-19T00:56:23.565Z,1.30
2023-11-19T00:58:56.665Z,1.20
2023-11-19T01:01:29.559Z,1.23
2023-11-19T01:04:02.577Z,1.93
2023-11-19T01:06:49.154Z,1.30
2023-11-19T01:09:13.003Z,1.50
2023-11-19T01:11:45.896Z,1.60
2023-11-19T01:14:19.249Z,1.30
2023-11-19T01:16:52.262Z,1.40
2023-11-19T01:19:27.395Z,1.40
2023-11-19T01:22:03.576Z,1.13
2023-11-19T01:24:36.955Z,2.47
2023-11-19T01:27:09.743Z,2.00
2023-11-19T01:29:42.795Z,1.60
2023-11-19T01:32:16.107Z,1.73
2023-11-19T01:34:49.254Z,1.07
2023-11-19T01:37:22.360Z,1.30
2023-11-19T01:42:29.328Z,2.37
2023-11-19T01:45:05.652Z,2.10
2023-11-19T01:47:42.382Z,2.00
2023-11-19T01:50:18.853Z,1.60
2023-11-19T01:52:52.091Z,1.60
2023-11-19T01:55:28.861Z,1.70
2023-11-19T01:58:04.330Z,1.80
2023-11-19T02:00:37.400Z,2.03
2023-11-19T02:03:11.334Z,1.90
2023-11-19T02:05:45.572Z,1.70
2023-11-19T02:08:19.129Z,1.50
2023-11-19T02:10:52.184Z,1.80
2023-11-19T02:13:25.224Z,2.20
2023-11-19T02:15:58.872Z,2.23
2023-11-19T02:18:32.410Z,1.70
2023-11-19T02:21:05.679Z,1.70
2023-11-19T02:23:39.541Z,2.80
2023-11-19T02:26:17.467Z,2.07
2023-11-19T02:28:50.845Z,2.33
2023-11-19T02:31:24.215Z,2.40
2023-11-19T02:33:57.956Z,1.90
2023-11-19T02:36:31.007Z,2.23
2023-11-19T02:39:04.031Z,1.37
2023-11-19T02:41:36.962Z,1.70
2023-11-19T02:44:13.546Z,2.03
2023-11-19T02:46:50.639Z,2.00
2023-11-19T02:49:23.867Z,1.77
2023-11-19T02:51:56.922Z,2.60
2023-11-19T02:54:30.431Z,1.67
2023-11-19T02:57:04.598Z,1.73
2023-11-19T02:59:38.698Z,2.50
2023-11-19T03:02:13.205Z,1.70
2023-11-19T03:04:50.189Z,2.67
2023-11-19T03:07:23.038Z,1.60
2023-11-19T03:09:57.513Z,1.70
2023-11-19T03:12:30.487Z,2.20
2023-11-19T03:15:03.877Z,1.80
2023-11-19T03:17:37.167Z,1.73
2023-11-19T03:20:17.094Z,1.80
2023-11-19T03:22:49.854Z,2.03
2023-11-19T03:25:22.616Z,2.60
2023-11-19T03:28:00.385Z,2.00
2023-11-19T03:30:34.867Z,2.20
2023-11-19T03:33:07.815Z,1.90
2023-11-19T03:35:40.704Z,2.30
2023-11-19T03:38:13.773Z,1.70
2023-11-19T03:40:46.622Z,2.53
2023-11-19T03:43:19.649Z,2.13
2023-11-19T03:45:57.087Z,2.37
2023-11-19T03:48:30.185Z,1.67
2023-11-19T03:51:03.452Z,2.47
2023-11-19T03:53:36.449Z,1.90
2023-11-19T03:56:10.232Z,2.50
2023-11-19T03:58:43.855Z,2.57
2023-11-19T04:01:19.770Z,2.23
2023-11-19T04:03:52.926Z,1.60
2023-11-19T04:06:26.291Z,3.50
2023-11-19T04:08:59.070Z,2.50
2023-11-19T04:11:32.355Z,2.17
2023-11-19T04:14:05.340Z,2.30
2023-11-19T04:16:38.672Z,1.60
2023-11-19T04:19:11.684Z,4.23
2023-11-19T04:21:45.655Z,2.13
2023-11-19T04:24:19.024Z,2.13
2023-11-19T04:26:52.062Z,1.70
2023-11-19T04:29:25.479Z,2.50
2023-11-19T04:31:58.451Z,2.30
2023-11-19T04:34:31.417Z,2.40
2023-11-19T04:39:40.180Z,2.70
2023-11-19T04:42:13.563Z,2.50
2023-11-19T04:44:47.191Z,1.80
2023-11-19T04:47:20.186Z,1.70
2023-11-19T04:49:52.921Z,1.93
2023-11-19T04:52:25.722Z,2.40
2023-11-19T04:54:58.845Z,1.50
2023-11-19T04:57:31.953Z,2.70
2023-11-19T05:02:40.447Z,1.80
2023-11-19T05:05:13.657Z,2.00
2023-11-19T05:07:46.575Z,2.20
2023-11-19T05:10:23.724Z,1.77
2023-11-19T05:12:56.854Z,1.90
2023-11-19T05:15:29.744Z,1.67
2023-11-19T05:18:02.572Z,1.83
2023-11-19T05:20:35.647Z,3.17
2023-11-19T05:23:21.158Z,4.00
2023-11-19T05:25:43.167Z,3.27
2023-11-19T05:28:17.508Z,2.20
2023-11-19T05:30:50.380Z,2.47
2023-11-19T05:33:23.896Z,1.97
2023-11-19T05:35:57.261Z,2.23
2023-11-19T05:38:30.505Z,2.33
2023-11-19T05:41:03.396Z,2.90
2023-11-19T05:43:36.974Z,1.93
2023-11-19T05:46:19.824Z,2.00
2023-11-19T05:48:44.309Z,1.90
2023-11-19T05:51:18.321Z,1.67
2023-11-19T05:53:52.531Z,2.27
2023-11-19T05:56:25.510Z,1.97
2023-11-19T05:58:59.368Z,1.47
2023-11-19T06:01:32.453Z,1.77
2023-11-19T06:04:05.325Z,1.80
2023-11-19T06:06:38.323Z,1.87
2023-11-19T06:09:13.509Z,1.87
2023-11-19T06:11:47.555Z,1.93
2023-11-19T06:14:20.625Z,1.70
2023-11-19T06:16:54.889Z,1.70
2023-11-19T06:19:30.853Z,1.97
2023-11-19T06:22:03.121Z,2.03
2023-11-19T06:24:37.834Z,1.70
2023-11-19T06:27:10.271Z,1.77
2023-11-19T06:29:48.085Z,1.60
2023-11-19T06:32:20.968Z,2.30
2023-11-19T06:34:53.988Z,1.70
2023-11-19T06:37:26.961Z,1.53
2023-11-19T06:40:00.052Z,1.90
2023-11-19T06:42:33.105Z,2.67
2023-11-19T06:45:06.584Z,1.57
2023-11-19T06:47:39.909Z,2.03
2023-11-19T06:50:14.686Z,1.50
2023-11-19T06:52:47.984Z,2.27
2023-11-19T06:55:20.876Z,1.80
2023-11-19T06:57:54.463Z,2.00
2023-11-19T07:00:28.120Z,2.40
2023-11-19T07:03:01.252Z,1.80
2023-11-19T07:05:34.612Z,1.60
2023-11-19T07:08:07.694Z,1.73
2023-11-19T07:10:41.060Z,1.20
2023-11-19T07:13:13.976Z,1.60
2023-11-19T07:15:46.836Z,2.00
2023-11-19T07:18:19.649Z,1.60
2023-11-19T07:20:56.892Z,1.57
2023-11-19T07:23:30.790Z,2.07
2023-11-19T07:26:03.948Z,1.47
2023-11-19T07:28:36.885Z,1.20
2023-11-19T07:31:11.154Z,2.27
2023-11-19T07:33:48.456Z,1.57
2023-11-19T07:36:21.218Z,1.40
2023-11-19T07:38:53.936Z,2.00
2023-11-19T07:41:28.155Z,2.23
2023-11-19T07:44:01.285Z,1.67
2023-11-19T07:46:35.036Z,1.60
2023-11-19T07:49:08.188Z,1.37
2023-11-19T07:51:41.237Z,1.90
2023-11-19T07:54:14.185Z,2.70
2023-11-19T07:56:47.398Z,2.93
2023-11-19T07:59:20.512Z,1.80
2023-11-19T08:01:53.513Z,2.60
2023-11-19T08:04:27.267Z,2.30
2023-11-19T08:07:00.321Z,1.60
2023-11-19T08:09:33.788Z,1.80
2023-11-19T08:12:07.284Z,2.40
2023-11-19T08:14:40.567Z,1.90
2023-11-19T08:17:13.630Z,2.00
2023-11-19T08:19:46.887Z,2.70
2023-11-19T08:22:19.940Z,2.13
2023-11-19T08:24:53.554Z,2.57
2023-11-19T08:27:27.692Z,2.00
2023-11-19T08:30:00.674Z,1.53
2023-11-19T08:32:33.788Z,2.00
2023-11-19T08:35:10.912Z,1.90
2023-11-19T08:37:43.513Z,2.00
2023-11-19T08:40:18.522Z,2.30
2023-11-19T08:42:51.746Z,1.83
2023-11-19T08:45:24.794Z,2.97
2023-11-19T08:47:57.958Z,1.97
2023-11-19T08:50:31.085Z,2.00
2023-11-19T08:53:03.932Z,1.53
2023-11-19T08:55:36.811Z,1.47
2023-11-19T08:58:09.870Z,1.70
2023-11-19T09:00:42.764Z,2.33
2023-11-19T09:03:16.049Z,2.13
2023-11-19T09:05:49.166Z,2.00
2023-11-19T09:08:22.132Z,1.80
2023-11-19T09:10:55.171Z,1.73
2023-11-19T09:13:27.984Z,2.57
2023-11-19T09:16:02.349Z,1.93
2023-11-19T09:18:35.464Z,1.53
2023-11-19T09:21:08.677Z,2.30
2023-11-19T09:23:42.326Z,1.30
2023-11-19T09:26:15.452Z,3.43
2023-11-19T09:28:48.638Z,2.03
2023-11-19T09:31:21.698Z,2.27
2023-11-19T09:33:54.555Z,2.70
2023-11-19T09:36:27.529Z,1.83
2023-11-19T09:39:00.505Z,2.43
2023-11-19T09:41:34.781Z,2.30
2023-11-19T09:44:07.924Z,2.27
2023-11-19T09:46:43.806Z,3.30
2023-11-19T09:49:18.107Z,1.80
2023-11-19T09:51:51.668Z,2.70
2023-11-19T09:54:24.608Z,1.93
2023-11-19T09:56:57.872Z,1.90
2023-11-19T09:59:31.121Z,2.40
2023-11-19T10:02:05.548Z,1.70
2023-11-19T10:04:40.267Z,2.07
2023-11-19T10:07:13.355Z,2.33
2023-11-19T10:09:46.862Z,1.70
2023-11-19T10:12:19.759Z,1.70
2023-11-19T10:14:54.207Z,2.23
2023-11-19T10:17:28.483Z,1.80
2023-11-19T10:20:01.609Z,1.93
2023-11-19T10:22:34.629Z,2.27
2023-11-19T10:25:07.853Z,2.90
2023-11-19T10:27:45.334Z,1.73
2023-11-19T10:30:26.019Z,1.67
2023-11-19T10:33:16.399Z,1.60
2023-11-19T10:36:03.194Z,1.70
2023-11-19T10:38:36.385Z,3.70
2023-11-19T10:41:09.366Z,1.87
2023-11-19T10:43:51.350Z,1.80
2023-11-19T10:46:25.611Z,2.00
2023-11-19T10:48:58.952Z,1.70
2023-11-19T10:51:33.011Z,1.43
2023-11-19T10:54:08.482Z,1.40
2023-11-19T10:56:41.563Z,1.60
2023-11-19T11:01:52.780Z,2.23
2023-11-19T11:04:30.927Z,1.80
2023-11-19T11:07:05.195Z,1.70
2023-11-19T11:09:38.215Z,1.53
2023-11-19T11:12:18.947Z,1.73
2023-11-19T11:14:52.938Z,1.43
2023-11-19T11:17:28.844Z,1.57
2023-11-19T11:20:01.738Z,2.00
2023-11-19T11:22:36.237Z,2.20
2023-11-19T11:25:26.173Z,1.63
2023-11-19T11:28:10.772Z,1.60
2023-11-19T11:30:45.762Z,1.53
2023-11-19T11:33:37.241Z,1.60
2023-11-19T11:36:18.296Z,1.97
2023-11-19T11:38:53.516Z,1.50
2023-11-19T11:41:30.222Z,1.13
2023-11-19T11:44:04.112Z,1.47
2023-11-19T11:46:42.941Z,1.23
2023-11-19T11:49:16.452Z,1.40
2023-11-19T11:51:51.565Z,1.33
2023-11-19T11:54:26.642Z,1.40
2023-11-19T11:57:20.761Z,1.30
2023-11-19T11:59:54.057Z,1.97
2023-11-19T12:02:29.197Z,1.40
2023-11-19T12:05:03.171Z,1.30
2023-11-19T12:07:36.016Z,1.50
2023-11-19T12:10:18.009Z,1.20
2023-11-19T12:12:51.019Z,1.30
2023-11-19T12:15:25.123Z,1.20
2023-11-19T12:17:58.437Z,1.50
2023-11-19T12:20:35.099Z,1.57
2023-11-19T12:23:10.249Z,1.53
2023-11-19T12:25:43.107Z,3.50
2023-11-19T12:28:22.863Z,1.27
2023-11-19T12:30:56.532Z,1.20
2023-11-19T12:33:29.543Z,2.60
2023-11-19T12:36:04.149Z,1.50
2023-11-19T12:38:37.149Z,1.37
2023-11-19T12:41:14.744Z,1.67
2023-11-19T12:46:25.771Z,1.63
2023-11-19T12:48:58.623Z,2.27
2023-11-19T12:51:38.048Z,1.50
2023-11-19T12:54:11.096Z,1.80
2023-11-19T12:56:44.813Z,2.10
2023-11-19T12:59:17.669Z,2.67
2023-11-19T13:02:03.395Z,1.47
2023-11-19T13:04:36.310Z,1.97
2023-11-19T13:07:09.129Z,1.43
2023-11-19T13:09:42.091Z,1.60
2023-11-19T13:12:21.486Z,1.77
2023-11-19T13:14:54.517Z,2.23
2023-11-19T13:17:27.304Z,1.67
2023-11-19T13:20:02.853Z,1.50
2023-11-19T13:22:35.700Z,2.33
2023-11-19T13:25:09.253Z,1.90
2023-11-19T13:27:42.560Z,1.97
2023-11-19T13:32:51.163Z,1.40
2023-11-19T13:35:24.584Z,1.50
2023-11-19T13:37:57.344Z,2.37
2023-11-19T13:40:30.457Z,1.77
2023-11-19T13:43:03.196Z,1.70
2023-11-19T13:45:36.562Z,1.57
2023-11-19T13:48:09.609Z,2.10
2023-11-19T13:50:42.393Z,2.40
2023-11-19T13:53:15.686Z,2.03
2023-11-19T13:55:48.686Z,2.17
2023-11-19T13:58:21.919Z,1.93
2023-11-19T14:00:54.691Z,1.60
2023-11-19T14:03:27.614Z,1.83
2023-11-19T14:06:03.950Z,2.10
2023-11-19T14:08:35.249Z,1.80
2023-11-19T14:11:08.208Z,2.30
2023-11-19T14:13:41.079Z,1.30
2023-11-19T14:16:15.507Z,2.30
2023-11-19T14:18:48.517Z,2.27
2023-11-19T14:21:21.054Z,2.20
2023-11-19T14:23:53.870Z,1.93
2023-11-19T14:26:26.709Z,1.90
2023-11-19T14:28:59.567Z,2.13
2023-11-19T14:31:33.235Z,1.73
2023-11-19T14:34:06.114Z,1.70
2023-11-19T14:36:43.076Z,1.50
2023-11-19T14:39:15.954Z,1.73
2023-11-19T14:41:48.992Z,2.20
2023-11-19T14:44:22.816Z,1.53
2023-11-19T14:46:55.769Z,1.70
2023-11-19T14:49:28.860Z,1.57
2023-11-19T14:54:35.750Z,2.00
2023-11-19T14:57:09.594Z,2.33
2023-11-19T14:59:42.337Z,1.90
2023-11-19T15:02:15.234Z,2.10
2023-11-19T15:04:48.763Z,2.10
2023-11-19T15:07:21.916Z,1.57
2023-11-19T15:09:54.762Z,2.20
2023-11-19T15:12:30.582Z,1.60
2023-11-19T15:15:03.538Z,1.80
2023-11-19T15:17:36.486Z,1.70
2023-11-19T15:20:12.198Z,1.90
2023-11-19T15:22:45.924Z,1.63
2023-11-19T15:25:19.019Z,2.60
2023-11-19T15:27:51.817Z,2.13
2023-11-19T15:30:24.645Z,1.97
2023-11-19T15:32:58.033Z,1.60
2023-11-19T15:35:30.943Z,1.53
2023-11-19T15:38:03.783Z,1.67
2023-11-19T15:40:36.846Z,1.90
2023-11-19T15:43:09.907Z,1.80
2023-11-19T15:45:42.711Z,2.20
2023-11-19T15:48:16.594Z,1.37
2023-11-19T15:50:49.756Z,2.00
2023-11-19T15:53:22.610Z,1.70
2023-11-19T15:55:56.733Z,1.77
2023-11-19T15:58:29.583Z,1.60
2023-11-19T16:01:03.801Z,2.00
2023-11-19T16:03:52.507Z,1.63
2023-11-19T16:06:11.862Z,1.50
2023-11-19T16:08:45.118Z,1.70
2023-11-19T16:11:18.430Z,1.53
2023-11-19T16:13:51.222Z,1.83
2023-11-19T16:16:23.870Z,1.57
2023-11-19T16:18:56.770Z,1.70
2023-11-19T16:21:29.683Z,1.73
2023-11-19T16:24:03.684Z,1.60
2023-11-19T16:26:38.055Z,1.60
2023-11-19T16:29:11.054Z,3.17
2023-11-19T16:31:45.309Z,1.63
2023-11-19T16:34:24.644Z,2.67
2023-11-19T16:36:57.418Z,2.40
2023-11-19T16:39:30.144Z,2.60
2023-11-19T16:42:02.959Z,2.97
2023-11-19T16:44:35.991Z,2.93
2023-11-19T16:47:10.014Z,2.37
2023-11-19T16:49:44.039Z,2.20
2023-11-19T16:52:16.931Z,3.47
2023-11-19T16:54:49.913Z,1.50
2023-11-19T16:57:30.057Z,2.20
2023-11-19T17:00:05.991Z,2.23
2023-11-19T17:05:14.145Z,1.60
2023-11-19T17:07:48.669Z,1.83
2023-11-19T17:10:21.722Z,1.30
2023-11-19T17:12:54.898Z,1.80
2023-11-19T17:15:27.718Z,1.60
2023-11-19T17:18:00.620Z,1.40
2023-11-19T17:20:33.672Z,1.30
2023-11-19T17:23:07.674Z,1.30
2023-11-19T17:25:41.746Z,1.50
2023-11-19T17:28:15.031Z,1.73
2023-11-19T17:30:48.017Z,2.03
2023-11-19T17:33:21.299Z,1.93
2023-11-19T17:35:54.784Z,2.00
2023-11-19T17:38:28.899Z,2.37
2023-11-19T17:41:02.055Z,1.90
2023-11-19T17:43:35.062Z,1.67
2023-11-19T17:46:09.141Z,1.60
2023-11-19T17:48:42.251Z,1.70
2023-11-19T17:51:15.851Z,1.50
2023-11-19T17:53:48.737Z,1.43
2023-11-19T17:56:21.521Z,1.80
2023-11-19T17:58:54.664Z,1.70
2023-11-19T18:01:31.800Z,2.10
2023-11-19T18:04:04.670Z,2.50
2023-11-19T18:06:39.907Z,2.23
2023-11-19T18:09:12.940Z,2.27
2023-11-19T18:11:45.807Z,2.13
2023-11-19T18:14:18.886Z,2.20
2023-11-19T18:16:51.575Z,2.33
2023-11-19T18:19:24.742Z,2.70
2023-11-19T18:21:58.069Z,2.80
2023-11-19T18:24:30.909Z,2.40
2023-11-19T18:27:04.700Z,3.40
2023-11-19T18:29:38.526Z,2.40
2023-11-19T18:32:12.747Z,2.17
2023-11-19T18:34:45.683Z,2.40
2023-11-19T18:37:19.019Z,2.50
2023-11-19T18:39:52.041Z,2.73
2023-11-19T18:42:24.929Z,3.23
2023-11-19T18:44:57.755Z,3.60
2023-11-19T18:47:30.713Z,2.40
2023-11-19T18:50:03.741Z,3.10
2023-11-19T18:52:36.606Z,2.83
2023-11-19T18:55:11.724Z,2.90
2023-11-19T18:57:44.576Z,3.53
2023-11-19T19:00:18.205Z,3.10
2023-11-19T19:05:26.532Z,3.80
2023-11-19T19:07:59.596Z,3.47
2023-11-19T19:10:32.685Z,3.60
2023-11-19T19:13:05.586Z,3.00
2023-11-19T19:15:39.637Z,3.63
2023-11-19T19:18:12.608Z,3.23
2023-11-19T19:20:46.871Z,2.93
2023-11-19T19:23:19.778Z,2.77
2023-11-19T19:25:53.555Z,2.70
2023-11-19T19:28:26.799Z,2.47
2023-11-19T19:31:04.354Z,2.40
2023-11-19T19:33:37.149Z,2.20
2023-11-19T19:36:12.036Z,1.73
2023-11-19T19:38:45.013Z,2.20
2023-11-19T19:41:17.918Z,1.90
2023-11-19T19:43:50.850Z,2.00
2023-11-19T19:46:23.701Z,1.90
2023-11-19T19:48:56.950Z,1.37
2023-11-19T19:51:30.024Z,1.23
2023-11-19T19:54:03.140Z,2.00
2023-11-19T19:56:40.453Z,2.27
2023-11-19T19:59:13.407Z,1.67
2023-11-19T20:01:50.469Z,2.13
2023-11-19T20:04:23.614Z,2.43
2023-11-19T20:06:56.520Z,2.50
2023-11-19T20:09:29.189Z,2.30
2023-11-19T20:12:02.350Z,2.23
2023-11-19T20:14:35.357Z,2.80
2023-11-19T20:17:11.405Z,2.97
2023-11-19T20:19:43.594Z,2.60
2023-11-19T20:22:16.428Z,3.07
2023-11-19T20:24:50.662Z,2.20
2023-11-19T20:27:25.127Z,2.60
2023-11-19T20:29:58.101Z,2.87
2023-11-19T20:32:31.592Z,2.20
2023-11-19T20:35:04.785Z,2.70
2023-11-19T20:37:43.698Z,2.23
2023-11-19T20:40:17.345Z,2.40
2023-11-19T20:42:52.749Z,2.63
2023-11-19T20:45:27.028Z,1.77
2023-11-19T20:48:01.155Z,2.43
2023-11-19T20:50:34.283Z,2.30
2023-11-19T20:53:07.135Z,3.27
2023-11-19T20:55:41.422Z,3.27
2023-11-19T20:58:14.236Z,3.10
2023-11-19T21:00:46.940Z,3.30
2023-11-19T21:03:21.245Z,3.77
2023-11-19T21:05:55.220Z,3.50
2023-11-19T21:08:29.426Z,3.33
2023-11-19T21:11:02.079Z,3.80
2023-11-19T21:13:34.894Z,3.70
2023-11-19T21:16:08.003Z,3.63
2023-11-19T21:18:41.152Z,4.00
2023-11-19T21:21:14.400Z,3.67
2023-11-19T21:23:47.228Z,2.90
2023-11-19T21:26:20.484Z,2.97
2023-11-19T21:28:54.320Z,3.03
2023-11-19T21:31:27.359Z,3.73
2023-11-19T21:34:00.303Z,3.47
2023-11-19T21:36:32.929Z,2.90
2023-11-19T21:39:07.040Z,3.23
2023-11-19T21:41:40.207Z,3.73
2023-11-19T21:44:18.215Z,3.57
2023-11-19T21:46:51.156Z,3.90
2023-11-19T21:49:24.198Z,3.60
2023-11-19T21:51:57.117Z,3.17
2023-11-19T21:54:30.029Z,3.23
2023-11-19T21:57:02.698Z,4.20
2023-11-19T21:59:35.529Z,3.77
2023-11-19T22:02:08.341Z,4.07
2023-11-19T22:04:41.278Z,3.70
2023-11-19T22:07:14.027Z,4.10
2023-11-19T22:10:35.887Z,3.27
2023-11-19T22:12:31.341Z,3.80
2023-11-19T22:15:04.163Z,3.93
2023-11-19T22:17:38.398Z,3.43
2023-11-19T22:22:49.734Z,3.33
2023-11-19T22:25:29.898Z,3.57
2023-11-19T22:28:02.550Z,4.00
2023-11-19T22:30:35.373Z,3.27
2023-11-19T22:33:09.600Z,3.33
2023-11-19T22:35:42.177Z,3.87
2023-11-19T22:38:15.187Z,4.30
2023-11-19T22:40:48.071Z,4.13
2023-11-19T22:43:21.262Z,3.90
2023-11-19T22:45:54.318Z,4.23
2023-11-19T22:48:27.475Z,4.40
2023-11-19T22:51:00.837Z,3.77
2023-11-19T22:53:34.009Z,4.00
2023-11-19T22:56:07.111Z,3.07
2023-11-19T22:58:39.801Z,3.13
2023-11-19T23:01:12.972Z,3.83
2023-11-19T23:03:45.775Z,3.00
2023-11-19T23:06:18.558Z,3.10
2023-11-19T23:08:51.547Z,3.50
2023-11-19T23:11:24.321Z,3.40
2023-11-19T23:13:57.070Z,3.37
2023-11-19T23:16:30.059Z,4.00
2023-11-19T23:19:02.885Z,2.93
2023-11-19T23:21:35.588Z,3.40
2023-11-19T23:24:09.210Z,3.30
2023-11-19T23:26:43.120Z,2.47
2023-11-19T23:29:17.102Z,2.80
2023-11-19T23:31:52.932Z,3.13
2023-11-19T23:37:03.764Z,2.60
2023-11-19T23:39:36.695Z,2.70
2023-11-19T23:42:09.760Z,3.07
2023-11-19T23:44:42.556Z,2.40
2023-11-19T23:47:15.584Z,2.77
2023-11-19T23:49:48.827Z,3.20
2023-11-19T23:52:24.224Z,2.67
2023-11-19T23:54:57.670Z,2.97
2023-11-19T23:57:30.677Z,2.93
